createdAt,value
2018-04-25T12:24:48.412Z,46.66
2018-04-25T12:25:01.026Z,46.56
2018-04-25T12:25:13.622Z,47.14
2018-04-25T12:25:26.238Z,46.86
2018-04-25T12:25:38.853Z,46.66
2018-04-25T12:25:51.442Z,46.86
2018-04-25T12:26:04.041Z,46.95
2018-04-25T12:26:16.628Z,47.34
2018-04-25T12:26:29.224Z,47.24
2018-04-25T12:26:41.813Z,47.82
2018-04-25T12:26:54.412Z,47.44
2018-04-25T12:27:07.090Z,47.63
2018-04-25T12:27:20.022Z,47.72
2018-04-25T12:27:32.642Z,48.21
2018-04-25T12:27:45.686Z,48.79
2018-04-25T12:27:58.242Z,48.21
2018-04-25T12:28:38.317Z,47.70
2018-04-25T12:28:50.910Z,47.72
2018-04-25T12:29:03.501Z,47.92
2018-04-25T12:29:16.096Z,46.86
2018-04-25T12:29:28.708Z,46.66
2018-04-25T12:29:41.345Z,46.55
2018-04-25T12:29:54.079Z,46.47
2018-04-25T12:30:06.688Z,46.66
2018-04-25T12:30:19.307Z,46.18
2018-04-25T12:30:31.906Z,46.37
2018-04-25T12:30:44.497Z,46.64
2018-04-25T12:30:57.115Z,46.56
2018-04-25T12:31:09.720Z,46.06
2018-04-25T12:31:22.335Z,46.15
2018-04-25T12:31:34.950Z,46.18
2018-04-25T12:31:47.538Z,45.77
2018-04-25T12:32:00.130Z,46.25
2018-04-25T12:32:12.723Z,46.73
2018-04-25T12:32:25.315Z,46.55
2018-04-25T12:32:37.910Z,46.55
2018-04-25T12:32:50.509Z,46.64
2018-04-25T12:33:03.123Z,46.73
2018-04-25T12:33:15.711Z,46.55
2018-04-25T12:33:28.290Z,46.64
2018-04-25T12:33:40.902Z,46.83
2018-04-25T12:33:53.507Z,47.03
2018-04-25T12:34:06.175Z,47.03
2018-04-25T12:34:18.823Z,46.93
2018-04-25T12:34:31.427Z,46.73
2018-04-25T12:34:44.021Z,46.83
2018-04-25T12:34:56.640Z,46.45
2018-04-25T12:35:09.256Z,47.03
2018-04-25T12:35:21.837Z,46.35
2018-04-25T12:35:34.427Z,46.93
2018-04-25T12:35:47.165Z,47.14
2018-04-25T12:35:59.618Z,47.24
2018-04-25T12:36:12.233Z,47.24
2018-04-25T12:36:24.826Z,47.24
2018-04-25T12:36:37.425Z,47.14
2018-04-25T12:36:50.044Z,47.05
2018-04-25T12:37:02.660Z,47.31
2018-04-25T12:37:15.263Z,47.44
2018-04-25T12:37:27.894Z,46.86
2018-04-25T12:37:40.514Z,47.05
2018-04-25T12:37:53.131Z,46.86
2018-04-25T12:38:05.722Z,46.95
2018-04-25T12:38:18.313Z,46.95
2018-04-25T12:38:30.908Z,46.76
2018-04-25T12:38:43.533Z,46.86
2018-04-25T12:38:56.142Z,46.86
2018-04-25T12:39:08.740Z,47.05
2018-04-25T12:39:21.339Z,47.24
2018-04-25T12:39:33.930Z,47.24
2018-04-25T12:39:46.526Z,47.63
2018-04-25T12:39:59.123Z,47.53
2018-04-25T12:40:11.716Z,47.44
2018-04-25T12:40:24.310Z,47.14
2018-04-25T12:40:36.904Z,46.95
2018-04-25T12:40:49.494Z,47.14
2018-04-25T12:41:02.085Z,47.34
2018-04-25T12:41:14.677Z,47.05
2018-04-25T12:41:27.272Z,46.66
2018-04-25T12:41:39.921Z,46.66
2018-04-25T12:41:52.476Z,46.59
2018-04-25T12:42:05.069Z,46.40
2018-04-25T12:42:17.672Z,46.88
2018-04-25T12:42:30.261Z,46.97
2018-04-25T12:42:42.863Z,47.07
2018-04-25T12:42:55.479Z,47.17
2018-04-25T12:43:08.108Z,47.07
2018-04-25T12:43:20.687Z,47.27
2018-04-25T12:43:33.288Z,47.55
2018-04-25T12:43:45.901Z,46.69
2018-04-25T12:43:58.537Z,46.59
2018-04-25T12:44:11.180Z,46.40
2018-04-25T12:44:23.799Z,45.92
2018-04-25T12:44:36.420Z,45.92
2018-04-25T12:44:49.093Z,45.62
2018-04-25T12:45:01.711Z,45.53
2018-04-25T12:45:14.339Z,45.62
2018-04-25T12:45:27.026Z,45.72
2018-04-25T12:45:39.657Z,45.70
2018-04-25T12:45:52.250Z,45.72
2018-04-25T12:46:04.865Z,45.82
2018-04-25T12:46:17.517Z,45.62
2018-04-25T12:46:30.139Z,45.62
2018-04-25T12:46:42.742Z,46.20
2018-04-25T12:46:55.352Z,46.20
2018-04-25T12:47:08.031Z,46.40
2018-04-25T12:47:20.572Z,46.40
2018-04-25T12:47:33.132Z,46.88
2018-04-25T12:47:45.731Z,46.69
2018-04-25T12:47:58.349Z,46.69
2018-04-25T12:48:11.034Z,46.20
2018-04-25T12:48:23.640Z,46.59
2018-04-25T12:48:36.268Z,46.59
2018-04-25T12:48:48.891Z,46.97
2018-04-25T12:49:01.484Z,46.78
2018-04-25T12:49:14.085Z,46.59
2018-04-25T12:49:26.705Z,46.59
2018-04-25T12:49:39.325Z,46.69
2018-04-25T12:49:51.924Z,46.69
2018-04-25T12:50:04.884Z,46.40
2018-04-25T12:50:17.457Z,46.23
2018-04-25T12:50:30.124Z,46.01
2018-04-25T12:50:42.742Z,45.75
2018-04-25T12:50:55.359Z,45.84
2018-04-25T12:51:07.955Z,45.75
2018-04-25T12:51:20.550Z,45.75
2018-04-25T12:51:33.145Z,46.03
2018-04-25T12:51:45.741Z,45.84
2018-04-25T12:51:58.360Z,45.94
2018-04-25T12:52:10.951Z,45.84
2018-04-25T12:52:23.530Z,45.55
2018-04-25T12:52:36.142Z,45.45
2018-04-25T12:52:48.734Z,45.45
2018-04-25T12:53:01.374Z,45.36
2018-04-25T12:53:13.955Z,45.55
2018-04-25T12:53:26.643Z,45.84
2018-04-25T12:53:39.630Z,45.84
2018-04-25T12:53:52.264Z,45.55
2018-04-25T12:54:04.928Z,45.55
2018-04-25T12:54:17.425Z,45.65
2018-04-25T12:54:30.014Z,45.65
2018-04-25T12:54:42.607Z,45.94
2018-04-25T12:54:55.206Z,45.36
2018-04-25T12:55:07.800Z,44.87
2018-04-25T12:55:20.387Z,45.26
2018-04-25T12:55:32.981Z,44.97
2018-04-25T12:55:45.578Z,44.87
2018-04-25T12:55:58.200Z,44.97
2018-04-25T12:56:10.787Z,44.78
2018-04-25T12:56:23.431Z,45.07
2018-04-25T12:56:36.667Z,45.26
2018-04-25T12:56:49.660Z,45.07
2018-04-25T12:57:02.455Z,45.17
2018-04-25T12:57:15.047Z,45.26
2018-04-25T12:57:27.644Z,44.78
2018-04-25T12:57:40.717Z,45.07
2018-04-25T12:57:53.574Z,44.78
2018-04-25T12:58:06.599Z,44.97
2018-04-25T12:58:19.195Z,45.17
2018-04-25T12:58:31.862Z,45.26
2018-04-25T12:58:44.545Z,45.45
2018-04-25T12:58:57.354Z,45.45
2018-04-25T12:59:09.994Z,45.45
2018-04-25T12:59:22.717Z,45.36
2018-04-25T12:59:35.572Z,45.26
2018-04-25T12:59:48.200Z,45.26
2018-04-25T13:00:00.792Z,45.55
2018-04-25T13:00:13.385Z,45.55
2018-04-25T13:00:25.974Z,45.65
2018-04-25T13:00:38.609Z,45.84
2018-04-25T13:00:51.245Z,45.75
2018-04-25T13:01:03.842Z,45.75
2018-04-25T13:01:16.445Z,45.55
2018-04-25T13:01:29.055Z,45.65
2018-04-25T13:01:41.656Z,45.94
2018-04-25T13:01:54.246Z,45.94
2018-04-25T13:02:06.941Z,45.94
2018-04-25T13:02:19.850Z,45.65
2018-04-25T13:02:33.062Z,45.75
2018-04-25T13:02:45.687Z,45.65
2018-04-25T13:02:58.374Z,45.45
2018-04-25T13:03:10.980Z,45.84
2018-04-25T13:03:23.576Z,45.36
2018-04-25T13:03:36.172Z,45.36
2018-04-25T13:03:48.771Z,45.36
2018-04-25T13:04:01.372Z,45.26
2018-04-25T13:04:13.958Z,45.26
2018-04-25T13:04:27.063Z,45.55
2018-04-25T13:04:40.332Z,45.36
2018-04-25T13:04:53.237Z,45.36
2018-04-25T13:05:05.881Z,44.97
2018-04-25T13:05:18.562Z,45.17
2018-04-25T13:05:31.129Z,45.26
2018-04-25T13:05:43.729Z,45.26
2018-04-25T13:05:56.334Z,45.17
2018-04-25T13:06:08.964Z,44.97
2018-04-25T13:06:21.557Z,44.80
2018-04-25T13:06:34.170Z,44.70
2018-04-25T13:06:46.761Z,44.10
2018-04-25T13:06:59.352Z,44.01
2018-04-25T13:07:11.944Z,44.39
2018-04-25T13:07:24.534Z,44.20
2018-04-25T13:07:37.132Z,44.20
2018-04-25T13:07:49.723Z,44.49
2018-04-25T13:08:02.324Z,44.39
2018-04-25T13:08:14.942Z,44.10
2018-04-25T13:08:27.562Z,44.49
2018-04-25T13:08:40.157Z,44.68
2018-04-25T13:08:52.851Z,44.68
2018-04-25T13:09:05.459Z,44.68
2018-04-25T13:09:18.058Z,44.68
2018-04-25T13:09:30.656Z,44.78
2018-04-25T13:09:43.264Z,44.87
2018-04-25T13:09:55.859Z,44.87
2018-04-25T13:10:08.453Z,44.87
2018-04-25T13:10:21.060Z,44.87
2018-04-25T13:10:33.660Z,44.59
2018-04-25T13:10:46.266Z,44.78
2018-04-25T13:10:58.876Z,44.68
2018-04-25T13:11:11.507Z,44.87
2018-04-25T13:11:24.097Z,44.97
2018-04-25T13:11:36.691Z,44.97
2018-04-25T13:11:49.318Z,45.17
2018-04-25T13:12:01.936Z,44.68
2018-04-25T13:12:14.531Z,44.87
2018-04-25T13:12:27.122Z,44.59
2018-04-25T13:12:39.724Z,44.60
2018-04-25T13:12:52.319Z,44.70
2018-04-25T13:13:04.939Z,44.87
2018-04-25T13:13:17.535Z,45.00
2018-04-25T13:13:30.152Z,44.60
2018-04-25T13:13:42.766Z,44.70
2018-04-25T13:13:55.363Z,44.42
2018-04-25T13:14:07.956Z,44.51
2018-04-25T13:14:20.561Z,44.32
2018-04-25T13:14:33.177Z,44.10
2018-04-25T13:14:45.766Z,43.52
2018-04-25T13:14:58.387Z,43.33
2018-04-25T13:15:10.987Z,43.43
2018-04-25T13:15:23.541Z,43.33
2018-04-25T13:15:36.140Z,43.62
2018-04-25T13:15:48.744Z,43.72
2018-04-25T13:16:01.323Z,43.62
2018-04-25T13:16:13.922Z,44.01
2018-04-25T13:16:26.546Z,44.01
2018-04-25T13:16:39.140Z,44.56
2018-04-25T13:16:51.734Z,44.76
2018-04-25T13:17:04.393Z,44.66
2018-04-25T13:17:17.025Z,44.85
2018-04-25T13:17:29.627Z,45.14
2018-04-25T13:17:42.235Z,44.85
2018-04-25T13:17:54.841Z,45.24
2018-04-25T13:18:07.451Z,45.04
2018-04-25T13:18:20.048Z,45.24
2018-04-25T13:18:32.638Z,45.14
2018-04-25T13:18:45.241Z,44.66
2018-04-25T13:18:57.850Z,45.04
2018-04-25T13:19:10.444Z,45.04
2018-04-25T13:19:23.062Z,45.04
2018-04-25T13:19:35.659Z,44.95
2018-04-25T13:19:48.244Z,45.04
2018-04-25T13:20:00.851Z,44.95
2018-04-25T13:20:13.460Z,44.85
2018-04-25T13:20:26.041Z,45.21
2018-04-25T13:20:38.633Z,44.85
2018-04-25T13:20:51.225Z,45.24
2018-04-25T13:21:03.829Z,45.24
2018-04-25T13:21:16.507Z,45.43
2018-04-25T13:21:29.083Z,45.43
2018-04-25T13:21:41.687Z,45.31
2018-04-25T13:21:54.324Z,45.60
2018-04-25T13:22:06.978Z,45.41
2018-04-25T13:22:19.573Z,45.60
2018-04-25T13:22:32.175Z,45.89
2018-04-25T13:22:44.763Z,45.51
2018-04-25T13:22:57.357Z,46.08
2018-04-25T13:23:09.950Z,45.99
2018-04-25T13:23:22.553Z,46.76
2018-04-25T13:23:35.138Z,46.56
2018-04-25T13:23:47.731Z,46.76
2018-04-25T13:24:00.362Z,47.14
2018-04-25T13:24:12.956Z,46.56
2018-04-25T13:24:25.592Z,47.05
2018-04-25T13:24:38.394Z,46.95
2018-04-25T13:24:50.985Z,46.59
2018-04-25T13:25:03.585Z,47.24
2018-04-25T13:25:16.176Z,46.86
2018-04-25T13:25:28.776Z,46.76
2018-04-25T13:25:41.398Z,47.05
2018-04-25T13:25:53.993Z,46.95
2018-04-25T13:26:06.581Z,46.37
2018-04-25T13:26:19.182Z,46.56
2018-04-25T13:26:31.797Z,46.86
2018-04-25T13:26:44.397Z,46.95
2018-04-25T13:26:57.012Z,47.05
2018-04-25T13:27:09.628Z,46.76
2018-04-25T13:27:22.221Z,47.44
2018-04-25T13:27:34.823Z,47.05
2018-04-25T13:27:47.434Z,47.53
2018-04-25T13:28:00.025Z,47.53
2018-04-25T13:28:12.624Z,46.95
2018-04-25T13:28:25.218Z,46.56
2018-04-25T13:28:37.819Z,46.59
2018-04-25T13:28:50.439Z,46.66
2018-04-25T13:29:03.033Z,47.17
2018-04-25T13:29:15.623Z,46.95
2018-04-25T13:29:28.288Z,47.05
2018-04-25T13:29:40.882Z,46.66
2018-04-25T13:29:53.477Z,46.66
2018-04-25T13:30:06.150Z,46.95
2018-04-25T13:30:18.760Z,46.76
2018-04-25T13:30:31.354Z,46.95
2018-04-25T13:30:43.950Z,47.34
2018-04-25T13:30:56.521Z,47.53
2018-04-25T13:31:09.122Z,47.05
2018-04-25T13:31:21.740Z,46.56
2018-04-25T13:31:34.330Z,46.66
2018-04-25T13:31:46.928Z,46.56
2018-04-25T13:31:59.516Z,46.56
2018-04-25T13:32:12.109Z,46.66
2018-04-25T13:32:24.704Z,46.56
2018-04-25T13:32:37.321Z,46.66
2018-04-25T13:32:49.909Z,46.66
2018-04-25T13:33:02.499Z,46.66
2018-04-25T13:33:15.094Z,46.66
2018-04-25T13:33:27.685Z,46.47
2018-04-25T13:33:40.322Z,46.66
2018-04-25T13:33:52.929Z,46.76
2018-04-25T13:34:05.545Z,47.05
2018-04-25T13:34:18.167Z,46.66
2018-04-25T13:34:30.786Z,46.95
2018-04-25T13:34:43.398Z,46.95
2018-04-25T13:34:55.991Z,47.14
2018-04-25T13:35:08.584Z,47.53
2018-04-25T13:35:21.176Z,47.24
2018-04-25T13:35:33.770Z,47.05
2018-04-25T13:35:46.366Z,47.24
2018-04-25T13:35:58.982Z,47.24
2018-04-25T13:36:11.585Z,47.05
2018-04-25T13:36:24.200Z,47.44
2018-04-25T13:36:36.794Z,47.92
2018-04-25T13:36:49.393Z,47.72
2018-04-25T13:37:01.987Z,47.82
2018-04-25T13:37:14.597Z,47.72
2018-04-25T13:37:27.192Z,47.34
2018-04-25T13:37:39.782Z,46.95
2018-04-25T13:37:52.434Z,47.14
2018-04-25T13:38:04.975Z,47.05
2018-04-25T13:38:17.572Z,46.95
2018-04-25T13:38:30.165Z,46.95
2018-04-25T13:38:42.758Z,47.07
2018-04-25T13:38:55.378Z,47.05
2018-04-25T13:39:08.194Z,47.07
2018-04-25T13:39:20.789Z,47.27
2018-04-25T13:39:33.421Z,47.27
2018-04-25T13:39:46.036Z,46.97
2018-04-25T13:39:58.634Z,47.75
2018-04-25T13:40:11.300Z,47.75
2018-04-25T13:40:23.895Z,47.94
2018-04-25T13:40:36.498Z,48.13
2018-04-25T13:40:49.091Z,47.65
2018-04-25T13:41:01.688Z,48.06
2018-04-25T13:41:14.273Z,48.42
2018-04-25T13:41:26.873Z,48.23
2018-04-25T13:41:39.482Z,48.54
2018-04-25T13:41:52.078Z,48.44
2018-04-25T13:42:04.668Z,48.54
2018-04-25T13:42:17.290Z,48.44
2018-04-25T13:42:29.906Z,48.44
2018-04-25T13:42:42.518Z,48.44
2018-04-25T13:42:55.126Z,48.25
2018-04-25T13:43:07.715Z,48.54
2018-04-25T13:43:20.312Z,47.87
2018-04-25T13:43:32.929Z,47.29
2018-04-25T13:43:45.527Z,47.00
2018-04-25T13:43:58.148Z,47.38
2018-04-25T13:44:10.767Z,47.00
2018-04-25T13:44:23.354Z,47.38
2018-04-25T13:44:35.952Z,47.09
2018-04-25T13:44:48.565Z,47.09
2018-04-25T13:45:01.162Z,47.50
2018-04-25T13:45:13.750Z,47.58
2018-04-25T13:45:26.363Z,47.60
2018-04-25T13:45:38.974Z,48.08
2018-04-25T13:45:51.571Z,48.37
2018-04-25T13:46:04.166Z,47.70
2018-04-25T13:46:16.754Z,48.28
2018-04-25T13:46:29.353Z,48.47
2018-04-25T13:46:42.048Z,48.66
2018-04-25T13:46:54.585Z,48.08
2018-04-25T13:47:07.163Z,47.89
2018-04-25T13:47:19.754Z,47.70
2018-04-25T13:47:32.397Z,47.70
2018-04-25T13:47:45.013Z,47.80
2018-04-25T13:47:57.625Z,48.08
2018-04-25T13:48:10.225Z,47.80
2018-04-25T13:48:22.841Z,47.60
2018-04-25T13:48:35.418Z,47.33
2018-04-25T13:48:48.017Z,46.95
2018-04-25T13:49:00.631Z,46.85
2018-04-25T13:49:13.225Z,46.66
2018-04-25T13:49:25.823Z,45.69
2018-04-25T13:49:38.428Z,45.79
2018-04-25T13:49:51.005Z,45.89
2018-04-25T13:50:03.612Z,45.40
2018-04-25T13:50:16.221Z,45.40
2018-04-25T13:50:28.810Z,45.69
2018-04-25T13:50:41.404Z,45.59
2018-04-25T13:50:53.992Z,45.79
2018-04-25T13:51:06.587Z,46.56
2018-04-25T13:51:19.186Z,46.66
2018-04-25T13:51:31.774Z,46.47
2018-04-25T13:51:44.396Z,45.89
2018-04-25T13:51:56.986Z,45.89
2018-04-25T13:52:09.581Z,46.08
2018-04-25T13:52:22.203Z,46.27
2018-04-25T13:52:34.917Z,46.27
2018-04-25T13:52:47.461Z,46.08
2018-04-25T13:53:00.065Z,46.08
2018-04-25T13:53:12.687Z,46.08
2018-04-25T13:53:25.282Z,45.98
2018-04-25T13:53:37.900Z,45.79
2018-04-25T13:53:50.525Z,46.00
2018-04-25T13:54:03.141Z,45.91
2018-04-25T13:54:15.740Z,45.72
2018-04-25T13:54:28.328Z,45.62
2018-04-25T13:54:40.961Z,45.42
2018-04-25T13:54:53.731Z,45.52
2018-04-25T13:55:06.338Z,45.04
2018-04-25T13:55:18.942Z,45.14
2018-04-25T13:55:31.535Z,45.23
2018-04-25T13:55:44.160Z,45.14
2018-04-25T13:55:56.752Z,45.23
2018-04-25T13:56:09.372Z,45.33
2018-04-25T13:56:21.963Z,45.23
2018-04-25T13:56:34.568Z,45.14
2018-04-25T13:56:47.203Z,45.04
2018-04-25T13:56:59.821Z,45.04
2018-04-25T13:57:12.409Z,44.84
2018-04-25T13:57:25.022Z,44.07
2018-04-25T13:57:37.596Z,44.07
2018-04-25T13:57:50.202Z,43.88
2018-04-25T13:58:02.788Z,44.07
2018-04-25T13:58:15.408Z,44.17
2018-04-25T13:58:28.227Z,43.98
2018-04-25T13:58:40.848Z,43.68
2018-04-25T13:58:53.448Z,43.49
2018-04-25T13:59:06.036Z,43.40
2018-04-25T13:59:18.635Z,43.30
2018-04-25T13:59:31.227Z,43.30
2018-04-25T13:59:43.823Z,43.40
2018-04-25T13:59:56.436Z,43.59
2018-04-25T14:00:09.074Z,43.78
2018-04-25T14:00:21.698Z,43.59
2018-04-25T14:00:34.337Z,43.78
2018-04-25T14:00:47.038Z,43.90
2018-04-25T14:00:59.544Z,43.98
2018-04-25T14:01:12.137Z,43.99
2018-04-25T14:01:24.741Z,43.71
2018-04-25T14:01:37.336Z,43.80
2018-04-25T14:01:49.928Z,43.61
2018-04-25T14:02:02.522Z,43.32
2018-04-25T14:02:15.099Z,43.23
2018-04-25T14:02:27.715Z,43.32
2018-04-25T14:02:40.313Z,42.83
2018-04-25T14:02:52.905Z,42.65
2018-04-25T14:03:05.499Z,42.55
2018-04-25T14:03:18.098Z,42.45
2018-04-25T14:03:30.703Z,42.74
2018-04-25T14:03:43.322Z,42.16
2018-04-25T14:03:55.944Z,42.35
2018-04-25T14:04:08.535Z,41.67
2018-04-25T14:04:21.131Z,42.07
2018-04-25T14:04:33.755Z,41.19
2018-04-25T14:04:46.340Z,41.09
2018-04-25T14:04:58.939Z,41.00
2018-04-25T14:05:11.529Z,41.00
2018-04-25T14:05:24.125Z,41.00
2018-04-25T14:05:36.847Z,40.78
2018-04-25T14:05:49.412Z,41.19
2018-04-25T14:06:02.100Z,41.56
2018-04-25T14:06:14.684Z,41.46
2018-04-25T14:06:27.217Z,41.56
2018-04-25T14:06:39.812Z,41.36
2018-04-25T14:06:52.433Z,42.14
2018-04-25T14:07:05.046Z,42.04
2018-04-25T14:07:17.650Z,41.66
2018-04-25T14:07:30.272Z,41.94
2018-04-25T14:07:42.890Z,42.04
2018-04-25T14:07:55.484Z,42.24
2018-04-25T14:08:08.080Z,42.14
2018-04-25T14:08:20.678Z,42.04
2018-04-25T14:08:33.270Z,41.94
2018-04-25T14:08:45.875Z,41.83
2018-04-25T14:08:58.467Z,41.93
2018-04-25T14:09:11.059Z,41.63
2018-04-25T14:09:23.654Z,41.73
2018-04-25T14:09:36.271Z,42.21
2018-04-25T14:09:48.899Z,41.93
2018-04-25T14:10:01.513Z,42.02
2018-04-25T14:10:14.136Z,42.12
2018-04-25T14:10:26.735Z,42.31
2018-04-25T14:10:39.354Z,42.60
2018-04-25T14:10:51.973Z,43.28
2018-04-25T14:11:04.569Z,43.28
2018-04-25T14:11:17.178Z,43.37
2018-04-25T14:11:29.772Z,43.20
2018-04-25T14:11:42.367Z,43.68
2018-04-25T14:11:54.956Z,43.01
2018-04-25T14:12:07.555Z,43.49
2018-04-25T14:12:20.154Z,43.40
2018-04-25T14:12:32.768Z,43.30
2018-04-25T14:12:45.362Z,42.72
2018-04-25T14:12:58.000Z,42.14
2018-04-25T14:13:10.566Z,41.66
2018-04-25T14:13:23.161Z,41.46
2018-04-25T14:13:35.752Z,40.78
2018-04-25T14:13:48.347Z,41.17
2018-04-25T14:14:00.944Z,40.59
2018-04-25T14:14:13.561Z,40.88
2018-04-25T14:14:26.153Z,40.77
2018-04-25T14:14:38.745Z,40.57
2018-04-25T14:14:51.411Z,40.77
2018-04-25T14:15:03.955Z,40.47
2018-04-25T14:15:16.558Z,40.86
2018-04-25T14:15:29.165Z,41.25
2018-04-25T14:15:41.822Z,41.35
2018-04-25T14:15:54.412Z,41.35
2018-04-25T14:16:07.058Z,41.35
2018-04-25T14:16:19.652Z,41.54
2018-04-25T14:16:32.248Z,41.35
2018-04-25T14:16:44.861Z,41.15
2018-04-25T14:16:57.457Z,41.05
2018-04-25T14:17:10.050Z,41.15
2018-04-25T14:17:22.643Z,41.15
2018-04-25T14:17:35.240Z,41.13
2018-04-25T14:17:47.833Z,41.13
2018-04-25T14:18:00.448Z,41.42
2018-04-25T14:18:13.038Z,41.61
2018-04-25T14:18:25.634Z,42.19
2018-04-25T14:18:38.224Z,41.61
2018-04-25T14:18:50.815Z,42.00
2018-04-25T14:19:03.429Z,42.10
2018-04-25T14:19:16.029Z,42.27
2018-04-25T14:19:28.646Z,42.46
2018-04-25T14:19:41.258Z,42.56
2018-04-25T14:19:53.851Z,42.36
2018-04-25T14:20:06.448Z,42.36
2018-04-25T14:20:19.043Z,42.36
2018-04-25T14:20:31.640Z,42.27
2018-04-25T14:20:44.235Z,42.27
2018-04-25T14:20:56.826Z,42.25
2018-04-25T14:21:09.426Z,42.05
2018-04-25T14:21:22.017Z,41.86
2018-04-25T14:21:34.614Z,41.96
2018-04-25T14:21:47.232Z,41.86
2018-04-25T14:21:59.827Z,41.77
2018-04-25T14:22:12.421Z,41.77
2018-04-25T14:22:25.017Z,41.86
2018-04-25T14:22:37.612Z,41.77
2018-04-25T14:22:50.185Z,41.96
2018-04-25T14:23:02.785Z,42.05
2018-04-25T14:23:15.402Z,42.15
2018-04-25T14:23:27.993Z,42.25
2018-04-25T14:23:40.589Z,41.57
2018-04-25T14:23:53.204Z,41.28
2018-04-25T14:24:05.801Z,41.48
2018-04-25T14:24:18.395Z,41.19
2018-04-25T14:24:30.995Z,41.77
2018-04-25T14:24:43.630Z,41.96
2018-04-25T14:24:56.272Z,41.96
2018-04-25T14:25:08.873Z,42.25
2018-04-25T14:25:21.472Z,43.31
2018-04-25T14:25:34.100Z,43.38
2018-04-25T14:25:46.734Z,43.67
2018-04-25T14:25:59.336Z,44.25
2018-04-25T14:26:11.953Z,44.73
2018-04-25T14:26:24.574Z,44.64
2018-04-25T14:26:37.156Z,45.21
2018-04-25T14:26:49.778Z,45.21
2018-04-25T14:27:02.568Z,45.89
2018-04-25T14:27:15.212Z,45.99
2018-04-25T14:27:27.879Z,46.66
2018-04-25T14:27:40.506Z,46.86
2018-04-25T14:27:53.132Z,47.44
2018-04-25T14:28:05.726Z,47.03
2018-04-25T14:28:18.320Z,47.80
2018-04-25T14:28:30.945Z,48.08
2018-04-25T14:28:43.532Z,48.76
2018-04-25T14:28:56.127Z,48.28
2018-04-25T14:29:08.866Z,48.47
2018-04-25T14:29:21.480Z,48.57
2018-04-25T14:29:34.106Z,48.95
2018-04-25T14:29:46.701Z,48.66
2018-04-25T14:29:59.319Z,49.15
2018-04-25T14:30:12.016Z,49.24
2018-04-25T14:30:24.594Z,49.24
2018-04-25T14:30:37.077Z,49.63
2018-04-25T14:30:49.710Z,49.82
2018-04-25T14:31:02.301Z,50.01
2018-04-25T14:31:14.943Z,49.91
2018-04-25T14:31:27.567Z,49.82
2018-04-25T14:31:40.188Z,49.91
2018-04-25T14:31:52.859Z,50.49
2018-04-25T14:32:05.479Z,50.21
2018-04-25T14:32:18.067Z,50.49
2018-04-25T14:32:30.713Z,51.43
2018-04-25T14:32:43.309Z,51.14
2018-04-25T14:32:55.908Z,51.43
2018-04-25T14:33:08.500Z,52.01
2018-04-25T14:33:21.105Z,52.49
2018-04-25T14:33:33.721Z,52.40
2018-04-25T14:33:46.322Z,53.45
2018-04-25T14:33:58.944Z,53.45
2018-04-25T14:34:11.608Z,54.06
2018-04-25T14:34:24.242Z,53.77
2018-04-25T14:34:36.838Z,54.03
2018-04-25T14:34:49.431Z,54.54
2018-04-25T14:35:02.022Z,54.61
2018-04-25T14:35:14.644Z,54.71
2018-04-25T14:35:27.262Z,54.90
2018-04-25T14:35:39.856Z,55.09
2018-04-25T14:35:52.446Z,55.00
2018-04-25T14:36:05.045Z,55.19
2018-04-25T14:36:17.672Z,55.09
2018-04-25T14:36:30.274Z,55.38
2018-04-25T14:36:42.887Z,55.38
2018-04-25T14:36:55.503Z,55.57
2018-04-25T14:37:08.103Z,55.67
2018-04-25T14:37:20.719Z,56.12
2018-04-25T14:37:33.314Z,56.32
2018-04-25T14:37:45.941Z,56.41
2018-04-25T14:37:58.527Z,56.22
2018-04-25T14:38:11.142Z,56.22
2018-04-25T14:38:23.735Z,56.32
2018-04-25T14:38:36.328Z,56.70
2018-04-25T14:38:48.920Z,56.80
2018-04-25T14:39:01.520Z,56.90
2018-04-25T14:39:14.137Z,56.60
2018-04-25T14:39:26.706Z,56.60
2018-04-25T14:39:39.384Z,56.51
2018-04-25T14:39:51.985Z,56.70
2018-04-25T14:40:04.580Z,56.80
2018-04-25T14:40:17.176Z,57.37
2018-04-25T14:40:29.771Z,57.09
2018-04-25T14:40:42.358Z,57.57
2018-04-25T14:40:54.960Z,57.57
2018-04-25T14:41:07.582Z,57.67
2018-04-25T14:41:20.173Z,57.76
2018-04-25T14:41:32.760Z,57.67
2018-04-25T14:41:45.355Z,57.67
2018-04-25T14:41:57.947Z,57.67
2018-04-25T14:42:10.567Z,57.67
2018-04-25T14:42:23.184Z,57.47
2018-04-25T14:42:35.776Z,57.57
2018-04-25T14:42:48.373Z,57.86
2018-04-25T14:43:00.993Z,58.05
2018-04-25T14:43:13.591Z,57.95
2018-04-25T14:43:26.205Z,57.95
2018-04-25T14:43:38.802Z,58.05
2018-04-25T14:43:51.422Z,57.95
2018-04-25T14:44:04.039Z,57.95
2018-04-25T14:44:16.636Z,58.05
2018-04-25T14:44:29.255Z,57.86
2018-04-25T14:44:41.858Z,57.57
2018-04-25T14:44:54.450Z,58.34
2018-04-25T14:45:07.053Z,58.05
2018-04-25T14:45:19.669Z,58.15
2018-04-25T14:45:32.273Z,57.95
2018-04-25T14:45:44.878Z,58.15
2018-04-25T14:45:57.480Z,58.24
2018-04-25T14:46:10.083Z,58.05
2018-04-25T14:46:22.701Z,58.34
2018-04-25T14:46:35.370Z,57.86
2018-04-25T14:46:47.973Z,57.86
2018-04-25T14:47:00.619Z,57.76
2018-04-25T14:47:13.212Z,58.05
2018-04-25T14:47:25.831Z,57.86
2018-04-25T14:47:38.428Z,57.76
2018-04-25T14:47:51.029Z,57.86
2018-04-25T14:48:03.631Z,57.67
2018-04-25T14:48:16.220Z,57.76
2018-04-25T14:48:28.905Z,57.67
2018-04-25T14:48:41.410Z,57.67
2018-04-25T14:48:54.028Z,57.86
2018-04-25T14:49:06.647Z,57.76
2018-04-25T14:49:19.265Z,57.86
2018-04-25T14:49:31.863Z,58.05
2018-04-25T14:49:44.481Z,58.24
2018-04-25T14:49:57.070Z,57.76
2018-04-25T14:50:09.667Z,57.86
2018-04-25T14:50:22.291Z,57.76
2018-04-25T14:50:34.883Z,57.47
2018-04-25T14:50:47.476Z,57.47
2018-04-25T14:51:00.074Z,57.76
2018-04-25T14:51:12.690Z,57.57
2018-04-25T14:51:25.285Z,57.86
2018-04-25T14:51:37.884Z,57.67
2018-04-25T14:51:50.485Z,57.47
2018-04-25T14:52:03.078Z,57.45
2018-04-25T14:52:15.676Z,57.76
2018-04-25T14:52:28.263Z,57.73
2018-04-25T14:52:40.856Z,57.73
2018-04-25T14:52:53.452Z,58.02
2018-04-25T14:53:06.045Z,57.92
2018-04-25T14:53:18.654Z,58.22
2018-04-25T14:53:31.234Z,58.60
2018-04-25T14:53:43.857Z,58.22
2018-04-25T14:53:56.446Z,58.70
2018-04-25T14:54:09.090Z,58.40
2018-04-25T14:54:21.751Z,58.70
2018-04-25T14:54:34.352Z,58.79
2018-04-25T14:54:46.939Z,58.70
2018-04-25T14:54:59.536Z,58.50
2018-04-25T14:55:12.200Z,58.98
2018-04-25T14:55:24.799Z,58.60
2018-04-25T14:55:37.392Z,58.60
2018-04-25T14:55:50.013Z,58.89
2018-04-25T14:56:02.607Z,58.79
2018-04-25T14:56:15.201Z,58.79
2018-04-25T14:56:27.790Z,59.17
2018-04-25T14:56:40.388Z,59.47
2018-04-25T14:56:52.981Z,59.37
2018-04-25T14:57:05.598Z,59.75
2018-04-25T14:57:18.196Z,59.56
2018-04-25T14:57:30.787Z,59.37
2018-04-25T14:57:43.385Z,58.98
2018-04-25T14:57:55.998Z,59.08
2018-04-25T14:58:08.594Z,58.57
2018-04-25T14:58:21.213Z,58.76
2018-04-25T14:58:33.806Z,59.53
2018-04-25T14:58:46.409Z,59.05
2018-04-25T14:58:59.028Z,59.63
2018-04-25T14:59:11.648Z,59.82
2018-04-25T14:59:24.241Z,59.63
2018-04-25T14:59:36.837Z,59.53
2018-04-25T14:59:49.429Z,59.63
2018-04-25T15:00:02.019Z,59.63
2018-04-25T15:00:14.630Z,59.44
2018-04-25T15:00:27.347Z,59.94
2018-04-25T15:00:39.969Z,59.75
2018-04-25T15:00:52.576Z,59.85
2018-04-25T15:01:05.169Z,59.85
2018-04-25T15:01:17.760Z,59.56
2018-04-25T15:01:30.381Z,59.82
2018-04-25T15:01:42.971Z,59.37
2018-04-25T15:01:55.597Z,59.47
2018-04-25T15:02:08.189Z,59.85
2018-04-25T15:02:20.808Z,59.56
2018-04-25T15:02:33.405Z,60.04
2018-04-25T15:02:46.025Z,59.75
2018-04-25T15:02:58.615Z,59.37
2018-04-25T15:03:11.235Z,59.56
2018-04-25T15:03:23.831Z,59.27
2018-04-25T15:03:36.449Z,59.27
2018-04-25T15:03:49.039Z,59.27
2018-04-25T15:04:01.697Z,59.75
2018-04-25T15:04:14.278Z,59.56
2018-04-25T15:04:26.898Z,59.94
2018-04-25T15:04:39.492Z,59.75
2018-04-25T15:04:52.086Z,59.85
2018-04-25T15:05:04.698Z,59.56
2018-04-25T15:05:17.295Z,59.75
2018-04-25T15:05:29.914Z,59.94
2018-04-25T15:05:42.534Z,60.33
2018-04-25T15:05:55.160Z,60.04
2018-04-25T15:06:07.792Z,59.75
2018-04-25T15:06:20.372Z,59.85
2018-04-25T15:06:32.967Z,59.75
2018-04-25T15:06:45.562Z,59.85
2018-04-25T15:06:58.183Z,59.75
2018-04-25T15:07:10.778Z,59.85
2018-04-25T15:07:23.379Z,59.75
2018-04-25T15:07:35.985Z,59.82